Time;durP1;ratioP1;P1;durP2;ratioP2;P2;SDS_P1;SDS_P2;PMS_P1;PMS_P2;Temp;Humidity;BMP_temperature;BMP_pressure;BME280_temperature;BME280_humidity;BME280_pressure;Samples;Min_cycle;Max_cycle;Signal;HPM_P1;HPM_P2
2024/01/17 00:02:04;;;;;;;42.50;39.87;;;;;;;;;;4994286;28;20228;-46
2024/01/17 00:04:30;;;;;;;43.77;41.17;;;;;;;;;;4993504;28;20481;-46
2024/01/17 00:06:56;;;;;;;48.67;45.80;;;;;;;;;;4993962;28;20424;-45
2024/01/17 00:09:23;;;;;;;43.88;41.22;;;;;;;;;;4994155;28;20397;-46
2024/01/17 00:11:50;;;;;;;45.65;42.83;;;;;;;;;;4994111;28;20173;-46
2024/01/17 00:14:16;;;;;;;47.22;44.40;;;;;;;;;;4993324;28;20176;-45
2024/01/17 00:16:42;;;;;;;42.60;40.10;;;;;;;;;;4993983;28;20193;-46
2024/01/17 00:19:08;;;;;;;46.47;43.67;;;;;;;;;;4993982;28;20412;-45
2024/01/17 00:21:34;;;;;;;47.70;44.90;;;;;;;;;;4993960;28;20415;-45
2024/01/17 00:23:59;;;;;;;47.40;44.50;;;;;;;;;;4989090;28;20987;-46
2024/01/17 00:26:26;;;;;;;44.63;41.93;;;;;;;;;;4993085;28;20412;-45
2024/01/17 00:28:51;;;;;;;48.83;45.83;;;;;;;;;;4993389;28;20404;-45
2024/01/17 00:31:17;;;;;;;145.27;54.50;;;;;;;;;;4993746;28;20657;-46
2024/01/17 00:33:43;;;;;;;141.97;54.23;;;;;;;;;;4992903;28;21204;-45
2024/01/17 00:36:09;;;;;;;146.23;55.67;;;;;;;;;;4993560;28;20550;-45
2024/01/17 00:38:36;;;;;;;147.35;55.17;;;;;;;;;;4993231;28;20451;-45
2024/01/17 00:41:05;;;;;;;90.38;47.33;;;;;;;;;;4992902;28;20188;-45
2024/01/17 00:43:32;;;;;;;130.77;53.03;;;;;;;;;;4989500;28;20173;-45
2024/01/17 00:45:58;;;;;;;107.32;46.15;;;;;;;;;;4993159;28;20197;-45
2024/01/17 00:48:24;;;;;;;84.50;43.42;;;;;;;;;;4992983;28;20201;-45
2024/01/17 00:50:50;;;;;;;84.90;43.27;;;;;;;;;;4993200;28;20185;-45
2024/01/17 00:53:16;;;;;;;88.30;43.77;;;;;;;;;;4992728;28;20420;-45
2024/01/17 00:55:42;;;;;;;141.18;55.13;;;;;;;;;;4993007;28;20411;-45
2024/01/17 00:58:08;;;;;;;145.00;54.90;;;;;;;;;;4991629;28;20295;-45
2024/01/17 01:00:34;;;;;;;112.10;48.40;;;;;;;;;;4993030;28;20416;-45
2024/01/17 01:03:00;;;;;;;144.77;56.00;;;;;;;;;;4992228;28;20431;-46
2024/01/17 01:05:26;;;;;;;139.90;53.00;;;;;;;;;;4992678;28;20464;-45
2024/01/17 01:07:52;;;;;;;108.60;46.50;;;;;;;;;;4991390;28;20212;-45
2024/01/17 01:10:18;;;;;;;110.03;47.13;;;;;;;;;;4992747;28;20423;-45
2024/01/17 01:12:43;;;;;;;114.43;52.20;;;;;;;;;;4992113;28;20503;-45
2024/01/17 01:15:10;;;;;;;106.90;45.17;;;;;;;;;;4992685;28;20478;-46
2024/01/17 01:17:35;;;;;;;107.05;46.10;;;;;;;;;;4992824;28;20440;-45
2024/01/17 01:20:01;;;;;;;101.93;46.37;;;;;;;;;;4992663;28;20698;-46
2024/01/17 01:22:27;;;;;;;24.10;22.38;;;;;;;;;;4992056;28;20417;-45
2024/01/17 01:24:53;;;;;;;26.57;24.17;;;;;;;;;;4992165;28;20220;-46
2024/01/17 01:27:19;;;;;;;73.87;40.83;;;;;;;;;;4992676;28;20466;-45
2024/01/17 01:29:45;;;;;;;84.70;41.37;;;;;;;;;;4992491;28;20415;-45
2024/01/17 01:32:11;;;;;;;83.77;41.20;;;;;;;;;;4992601;28;20416;-45
2024/01/17 01:34:37;;;;;;;82.60;40.67;;;;;;;;;;4991759;28;20495;-45
2024/01/17 01:37:03;;;;;;;95.20;45.35;;;;;;;;;;4992318;28;20440;-46
2024/01/17 01:39:29;;;;;;;97.85;43.80;;;;;;;;;;4992270;28;20176;-45
2024/01/17 01:41:55;;;;;;;97.35;43.90;;;;;;;;;;4992603;28;20662;-45
2024/01/17 01:44:21;;;;;;;89.63;42.00;;;;;;;;;;4991618;28;20283;-45
2024/01/17 01:46:48;;;;;;;106.50;46.83;;;;;;;;;;4992119;28;20680;-45
2024/01/17 01:49:15;;;;;;;103.20;46.92;;;;;;;;;;4992292;28;20415;-46
2024/01/17 01:51:44;;;;;;;104.47;45.33;;;;;;;;;;4992313;28;20307;-45
2024/01/17 01:54:10;;;;;;;97.10;45.88;;;;;;;;;;4991382;28;20188;-45
2024/01/17 01:56:36;;;;;;;79.97;41.33;;;;;;;;;;4992186;28;20180;-45
2024/01/17 01:59:03;;;;;;;107.50;47.90;;;;;;;;;;4992321;28;20181;-45
2024/01/17 02:01:29;;;;;;;98.25;44.70;;;;;;;;;;4991539;28;20192;-46
2024/01/17 02:03:56;;;;;;;100.88;46.10;;;;;;;;;;4990844;28;20188;-46
2024/01/17 02:06:23;;;;;;;94.88;43.88;;;;;;;;;;4991561;28;20246;-45
2024/01/17 02:08:52;;;;;;;110.85;48.45;;;;;;;;;;4991497;28;20200;-45
2024/01/17 02:11:19;;;;;;;111.72;45.72;;;;;;;;;;4991830;28;20686;-45
2024/01/17 02:13:45;;;;;;;116.45;49.92;;;;;;;;;;4991167;28;20185;-45
2024/01/17 02:16:12;;;;;;;111.10;46.70;;;;;;;;;;4992054;28;20211;-45
2024/01/17 02:18:38;;;;;;;108.50;46.78;;;;;;;;;;4992081;28;20220;-46
2024/01/17 02:21:04;;;;;;;107.07;45.67;;;;;;;;;;4992108;28;20212;-45
2024/01/17 02:23:30;;;;;;;106.20;48.88;;;;;;;;;;4987575;28;20177;-45
2024/01/17 02:25:57;;;;;;;70.60;41.80;;;;;;;;;;4991316;28;20328;-45
2024/01/17 02:28:25;;;;;;;83.43;42.80;;;;;;;;;;4991976;28;20518;-46
2024/01/17 02:30:51;;;;;;;30.52;24.75;;;;;;;;;;4992142;28;20169;-46
2024/01/17 02:33:19;;;;;;;32.55;27.98;;;;;;;;;;4991509;28;20534;-45
2024/01/17 02:35:45;;;;;;;66.65;39.38;;;;;;;;;;4991800;28;20200;-46
2024/01/17 02:38:11;;;;;;;46.25;33.03;;;;;;;;;;4991906;28;20223;-45
2024/01/17 02:40:37;;;;;;;54.72;36.60;;;;;;;;;;4992504;28;20304;-45
2024/01/17 02:43:03;;;;;;;73.75;42.38;;;;;;;;;;4991291;28;20651;-45
2024/01/17 02:45:29;;;;;;;78.95;41.42;;;;;;;;;;4990579;28;20217;-45
2024/01/17 02:47:55;;;;;;;81.40;43.13;;;;;;;;;;4992013;28;20335;-45
2024/01/17 02:50:21;;;;;;;93.03;44.37;;;;;;;;;;4991907;28;20403;-45
2024/01/17 02:52:47;;;;;;;82.85;41.85;;;;;;;;;;4991393;28;20408;-45
2024/01/17 02:55:15;;;;;;;77.95;42.25;;;;;;;;;;4991785;28;20252;-45
2024/01/17 02:57:41;;;;;;;94.97;44.55;;;;;;;;;;4991905;28;20196;-45
2024/01/17 03:00:09;;;;;;;95.95;45.72;;;;;;;;;;4991802;28;20699;-45
2024/01/17 03:02:35;;;;;;;105.60;48.15;;;;;;;;;;4991220;28;20166;-46
2024/01/17 03:05:01;;;;;;;104.85;44.40;;;;;;;;;;4992486;28;20611;-46
2024/01/17 03:07:27;;;;;;;95.35;44.47;;;;;;;;;;4995339;28;20188;-46
2024/01/17 03:09:53;;;;;;;101.60;46.92;;;;;;;;;;4995185;28;20538;-46
2024/01/17 03:12:22;;;;;;;98.10;43.22;;;;;;;;;;4995185;28;20169;-45
2024/01/17 03:14:48;;;;;;;97.32;43.97;;;;;;;;;;4994881;28;20176;-45
2024/01/17 03:17:16;;;;;;;104.93;45.40;;;;;;;;;;4995235;28;20680;-45
2024/01/17 03:19:46;;;;;;;110.15;45.25;;;;;;;;;;4994981;28;20444;-45
2024/01/17 03:22:12;;;;;;;141.05;53.83;;;;;;;;;;4995120;28;20165;-45
2024/01/17 03:24:38;;;;;;;116.18;47.65;;;;;;;;;;4994027;28;20192;-45
2024/01/17 03:27:04;;;;;;;108.45;47.47;;;;;;;;;;4995022;28;20667;-45
2024/01/17 03:29:30;;;;;;;111.13;47.28;;;;;;;;;;4994939;28;20165;-45
2024/01/17 03:31:56;;;;;;;105.28;45.65;;;;;;;;;;4995044;28;20183;-45
2024/01/17 03:34:22;;;;;;;103.97;44.63;;;;;;;;;;4994127;28;20537;-45
2024/01/17 03:36:48;;;;;;;103.97;47.17;;;;;;;;;;4994752;28;20224;-45
2024/01/17 03:39:13;;;;;;;107.20;47.72;;;;;;;;;;4994686;28;20408;-46
2024/01/17 03:41:39;;;;;;;98.50;44.67;;;;;;;;;;4994897;28;20726;-45
2024/01/17 03:44:05;;;;;;;99.85;45.65;;;;;;;;;;4993812;28;20414;-45
2024/01/17 03:46:33;;;;;;;96.80;45.05;;;;;;;;;;4994497;28;20180;-45
2024/01/17 03:48:59;;;;;;;82.68;44.22;;;;;;;;;;4994687;28;20169;-45
2024/01/17 03:51:25;;;;;;;94.97;43.08;;;;;;;;;;4994535;28;20169;-46
2024/01/17 03:53:51;;;;;;;109.38;50.55;;;;;;;;;;4991104;28;20745;-46
2024/01/17 03:56:17;;;;;;;102.20;43.33;;;;;;;;;;4994080;28;20174;-45
2024/01/17 03:58:43;;;;;;;101.43;44.07;;;;;;;;;;4994193;28;20213;-46
2024/01/17 04:01:10;;;;;;;107.10;48.23;;;;;;;;;;4993995;28;20426;-45
2024/01/17 04:03:36;;;;;;;112.32;47.70;;;;;;;;;;4993325;28;20482;-45
2024/01/17 04:06:05;;;;;;;111.37;46.37;;;;;;;;;;4996179;28;20680;-45
2024/01/17 04:08:31;;;;;;;95.72;39.88;;;;;;;;;;4993906;28;20519;-46
2024/01/17 04:10:57;;;;;;;116.17;48.73;;;;;;;;;;4993934;28;20251;-45
2024/01/17 04:13:23;;;;;;;143.10;58.50;;;;;;;;;;4993203;28;20407;-45
2024/01/17 04:15:49;;;;;;;107.60;46.13;;;;;;;;;;4993446;28;20175;-45
2024/01/17 04:18:15;;;;;;;119.18;49.97;;;;;;;;;;4993078;28;20201;-45
2024/01/17 04:20:41;;;;;;;116.27;47.93;;;;;;;;;;4993659;28;20271;-45
2024/01/17 04:23:08;;;;;;;117.00;48.07;;;;;;;;;;4993384;28;20412;-45
2024/01/17 04:25:34;;;;;;;117.22;48.83;;;;;;;;;;4993426;28;20498;-45
2024/01/17 04:28:04;;;;;;;117.10;48.47;;;;;;;;;;4993933;28;20224;-45
2024/01/17 04:30:30;;;;;;;118.22;49.28;;;;;;;;;;4993918;28;20209;-45
2024/01/17 04:32:56;;;;;;;96.23;46.70;;;;;;;;;;4993076;28;20220;-45
2024/01/17 04:35:22;;;;;;;111.57;47.20;;;;;;;;;;4993489;28;20404;-45
2024/01/17 04:37:48;;;;;;;100.57;45.60;;;;;;;;;;4993618;28;20443;-45
2024/01/17 04:40:15;;;;;;;80.15;42.33;;;;;;;;;;4993676;28;20174;-45
2024/01/17 04:42:41;;;;;;;82.18;45.33;;;;;;;;;;4992898;28;20172;-45
2024/01/17 04:45:07;;;;;;;95.10;44.70;;;;;;;;;;4993335;28;20195;-45
2024/01/17 04:47:33;;;;;;;100.03;46.25;;;;;;;;;;4993198;28;20673;-45
2024/01/17 04:49:59;;;;;;;98.00;44.10;;;;;;;;;;4993421;28;20169;-45
2024/01/17 04:52:25;;;;;;;115.00;50.77;;;;;;;;;;4992964;28;20439;-46
2024/01/17 04:54:51;;;;;;;95.18;43.25;;;;;;;;;;4993051;28;20903;-45
2024/01/17 04:57:17;;;;;;;111.10;51.25;;;;;;;;;;4993142;28;20204;-45
2024/01/17 04:59:43;;;;;;;86.00;44.07;;;;;;;;;;4993334;28;20545;-46
2024/01/17 05:02:09;;;;;;;73.35;40.55;;;;;;;;;;4989005;28;20431;-45
2024/01/17 05:04:35;;;;;;;75.10;40.78;;;;;;;;;;4991973;28;20197;-45
2024/01/17 05:07:01;;;;;;;70.22;40.60;;;;;;;;;;4992849;28;20184;-45
2024/01/17 05:09:28;;;;;;;76.67;41.17;;;;;;;;;;4992905;28;20656;-45
2024/01/17 05:11:56;;;;;;;76.75;41.15;;;;;;;;;;4992958;28;20418;-45
2024/01/17 05:14:22;;;;;;;79.72;42.08;;;;;;;;;;4992142;28;20235;-45
2024/01/17 05:16:48;;;;;;;85.45;43.22;;;;;;;;;;4992639;28;20575;-45
2024/01/17 05:19:16;;;;;;;83.90;41.73;;;;;;;;;;4992509;28;20192;-45
2024/01/17 05:21:42;;;;;;;90.07;44.03;;;;;;;;;;4992746;28;20412;-46
2024/01/17 05:24:07;;;;;;;88.45;42.95;;;;;;;;;;4991803;28;20177;-45
2024/01/17 05:26:33;;;;;;;85.53;42.87;;;;;;;;;;4992578;28;21033;-45
2024/01/17 05:28:59;;;;;;;89.83;43.83;;;;;;;;;;4992419;28;20427;-46
2024/01/17 05:31:25;;;;;;;86.22;41.85;;;;;;;;;;4992380;28;20400;-46
2024/01/17 05:33:52;;;;;;;89.28;42.20;;;;;;;;;;4991639;28;20288;-45
2024/01/17 05:36:18;;;;;;;85.57;42.77;;;;;;;;;;4992576;28;20223;-46
2024/01/17 05:38:44;;;;;;;85.20;42.85;;;;;;;;;;4992395;28;20440;-45
2024/01/17 05:41:10;;;;;;;94.40;44.90;;;;;;;;;;4992319;28;20184;-46
2024/01/17 05:43:36;;;;;;;94.03;44.57;;;;;;;;;;4991667;28;20931;-45
2024/01/17 05:46:02;;;;;;;91.65;44.25;;;;;;;;;;4992316;28;20546;-45
2024/01/17 05:48:28;;;;;;;97.65;44.50;;;;;;;;;;5027086;22;20220;-43
2024/01/17 05:50:54;;;;;;;100.35;46.22;;;;;;;;;;4992423;28;20200;-43
2024/01/17 05:53:20;;;;;;;100.25;45.67;;;;;;;;;;4991419;28;20268;-43
2024/01/17 05:55:46;;;;;;;99.50;44.20;;;;;;;;;;4992350;28;20648;-43
2024/01/17 05:58:12;;;;;;;99.20;43.13;;;;;;;;;;4986497;28;20998;-43
2024/01/17 06:00:39;;;;;;;100.93;44.00;;;;;;;;;;4972780;28;20780;-44
2024/01/17 06:03:05;;;;;;;91.63;43.63;;;;;;;;;;4971754;28;20397;-44
2024/01/17 06:05:31;;;;;;;93.47;44.07;;;;;;;;;;4972664;28;20201;-43
2024/01/17 06:07:57;;;;;;;69.88;41.20;;;;;;;;;;4972943;28;20516;-43
2024/01/17 06:10:25;;;;;;;72.90;39.47;;;;;;;;;;4972784;28;20582;-43
2024/01/17 06:12:51;;;;;;;88.53;44.33;;;;;;;;;;4971958;28;20173;-43
2024/01/17 06:15:17;;;;;;;93.63;43.97;;;;;;;;;;4972498;28;20185;-44
2024/01/17 06:17:43;;;;;;;87.38;41.33;;;;;;;;;;4972386;28;20444;-44
2024/01/17 06:20:09;;;;;;;109.70;52.35;;;;;;;;;;4972621;28;20613;-42
2024/01/17 06:22:36;;;;;;;89.07;44.80;;;;;;;;;;4971811;28;20184;-44
2024/01/17 06:25:02;;;;;;;155.18;57.10;;;;;;;;;;4972512;28;20555;-43
2024/01/17 06:27:28;;;;;;;115.50;47.57;;;;;;;;;;4966531;28;20176;-43
2024/01/17 06:29:54;;;;;;;145.33;57.20;;;;;;;;;;4972402;28;20936;-44
2024/01/17 06:32:20;;;;;;;114.55;49.97;;;;;;;;;;4971933;28;20856;-44
2024/01/17 06:34:46;;;;;;;141.93;55.45;;;;;;;;;;4972068;28;20193;-42
2024/01/17 06:37:12;;;;;;;107.03;50.33;;;;;;;;;;4972409;28;20624;-44
2024/01/17 06:39:38;;;;;;;76.72;41.60;;;;;;;;;;4972793;28;20795;-42
2024/01/17 06:42:04;;;;;;;79.20;41.97;;;;;;;;;;4976059;28;20260;-43
2024/01/17 06:44:30;;;;;;;76.38;41.83;;;;;;;;;;4975211;28;20461;-44
2024/01/17 06:46:57;;;;;;;82.18;45.40;;;;;;;;;;4975887;28;20186;-44
2024/01/17 06:49:23;;;;;;;74.88;41.85;;;;;;;;;;4975789;28;20561;-44
2024/01/17 06:51:49;;;;;;;40.43;37.03;;;;;;;;;;4976034;28;20180;-44
2024/01/17 06:54:15;;;;;;;146.70;57.35;;;;;;;;;;4975111;28;20416;-43
2024/01/17 06:56:41;;;;;;;93.13;45.22;;;;;;;;;;4976416;28;20178;-43
2024/01/17 06:59:07;;;;;;;99.40;50.33;;;;;;;;;;4975681;28;20552;-44
2024/01/17 07:01:35;;;;;;;120.77;52.60;;;;;;;;;;4975815;28;20173;-44
2024/01/17 07:04:01;;;;;;;110.55;47.50;;;;;;;;;;4975059;28;20468;-44
2024/01/17 07:06:27;;;;;;;39.17;36.90;;;;;;;;;;4975700;28;20220;-44
2024/01/17 07:08:53;;;;;;;29.37;27.67;;;;;;;;;;4975658;28;20193;-43
2024/01/17 07:11:18;;;;;;;31.20;28.83;;;;;;;;;;4975937;28;20473;-42
2024/01/17 07:13:44;;;;;;;109.90;52.90;;;;;;;;;;4974997;28;20405;-44
2024/01/17 07:16:15;;;;;;;68.32;41.83;;;;;;;;;;4975708;28;20401;-43
2024/01/17 07:18:41;;;;;;;98.40;50.92;;;;;;;;;;4975628;28;20199;-43
2024/01/17 07:21:07;;;;;;;68.13;47.28;;;;;;;;;;4974672;28;20615;-43
2024/01/17 07:23:43;;;;;;;58.83;54.67;;;;;;;;;;4974871;28;20182;-44
2024/01/17 07:26:09;;;;;;;59.80;53.40;;;;;;;;;;4975974;28;20240;-44
2024/01/17 07:28:35;;;;;;;37.37;33.57;;;;;;;;;;4975891;28;20610;-43
2024/01/17 07:31:01;;;;;;;61.38;54.65;;;;;;;;;;4973701;28;20876;-44
2024/01/17 07:33:27;;;;;;;63.80;57.60;;;;;;;;;;4972367;28;20193;-44
2024/01/17 07:35:53;;;;;;;60.88;54.67;;;;;;;;;;4978179;28;20442;-43
2024/01/17 07:38:19;;;;;;;39.33;36.17;;;;;;;;;;4975703;28;20684;-44
2024/01/17 07:40:45;;;;;;;50.77;45.53;;;;;;;;;;4975438;28;21048;-44
2024/01/17 07:43:11;;;;;;;57.63;52.03;;;;;;;;;;4974593;28;20417;-44
2024/01/17 07:45:37;;;;;;;53.75;48.63;;;;;;;;;;4973543;28;20556;-44
2024/01/17 07:48:03;;;;;;;23.15;21.38;;;;;;;;;;4973826;28;20285;-44
2024/01/17 07:50:29;;;;;;;23.60;21.85;;;;;;;;;;4973529;28;20232;-44
2024/01/17 07:52:55;;;;;;;23.70;21.92;;;;;;;;;;4980406;28;20645;-44
2024/01/17 07:55:21;;;;;;;22.17;20.48;;;;;;;;;;4975109;28;20201;-43
2024/01/17 07:57:47;;;;;;;24.83;22.93;;;;;;;;;;4975222;28;20190;-44
2024/01/17 08:00:13;;;;;;;25.37;23.47;;;;;;;;;;4975021;28;20424;-44
2024/01/17 08:02:42;;;;;;;35.97;32.75;;;;;;;;;;4974084;28;20413;-44
2024/01/17 08:05:08;;;;;;;24.60;22.80;;;;;;;;;;4974753;28;20571;-44
2024/01/17 08:07:34;;;;;;;26.45;24.30;;;;;;;;;;4974776;28;20256;-44
2024/01/17 08:10:00;;;;;;;26.23;24.50;;;;;;;;;;4975188;28;20205;-43
2024/01/17 08:12:27;;;;;;;31.27;28.85;;;;;;;;;;4974953;28;20401;-43
2024/01/17 08:14:52;;;;;;;27.77;25.85;;;;;;;;;;4974846;28;20173;-44
2024/01/17 08:17:18;;;;;;;26.47;24.60;;;;;;;;;;4974989;28;20178;-44
2024/01/17 08:19:45;;;;;;;25.27;23.47;;;;;;;;;;4974895;28;20440;-44
2024/01/17 08:22:11;;;;;;;29.85;27.95;;;;;;;;;;4975060;28;20552;-44
2024/01/17 08:24:37;;;;;;;30.48;28.60;;;;;;;;;;4973913;28;20586;-43
2024/01/17 08:27:03;;;;;;;30.33;28.43;;;;;;;;;;4975156;28;20162;-44
2024/01/17 08:29:29;;;;;;;28.33;26.53;;;;;;;;;;4974903;28;20940;-44
2024/01/17 08:31:55;;;;;;;25.73;23.88;;;;;;;;;;4974995;28;20397;-44
2024/01/17 08:34:21;;;;;;;27.15;25.23;;;;;;;;;;4974064;28;20257;-44
2024/01/17 08:36:47;;;;;;;23.58;21.88;;;;;;;;;;4974719;28;20165;-46
2024/01/17 08:41:49;;;;;;;27.38;25.17;;;;;;;;;;5390178;23;21242;-42
2024/01/17 08:44:15;;;;;;;23.92;22.13;;;;;;;;;;5011070;28;20180;-41
2024/01/17 08:46:42;;;;;;;23.95;22.15;;;;;;;;;;5012853;28;20191;-41
2024/01/17 08:49:08;;;;;;;24.25;22.52;;;;;;;;;;5013131;28;20699;-42
2024/01/17 08:51:34;;;;;;;66.22;59.95;;;;;;;;;;4998430;28;20236;-42
2024/01/17 08:54:00;;;;;;;33.17;31.00;;;;;;;;;;4993868;28;20181;-43
2024/01/17 08:56:26;;;;;;;47.53;43.08;;;;;;;;;;4993034;28;20416;-42
2024/01/17 08:58:52;;;;;;;31.00;28.90;;;;;;;;;;4993030;28;20177;-42
2024/01/17 09:01:18;;;;;;;27.57;25.77;;;;;;;;;;4995441;28;20474;-42
2024/01/17 09:03:44;;;;;;;27.07;25.37;;;;;;;;;;4992268;28;20477;-42
2024/01/17 09:06:10;;;;;;;27.87;26.07;;;;;;;;;;4989017;28;20605;-42
2024/01/17 09:08:37;;;;;;;26.05;24.45;;;;;;;;;;4992866;28;20443;-42
2024/01/17 09:11:05;;;;;;;27.50;25.67;;;;;;;;;;4992481;28;20710;-42
2024/01/17 09:13:31;;;;;;;28.67;26.88;;;;;;;;;;4992803;28;20201;-42
2024/01/17 09:15:57;;;;;;;27.60;25.90;;;;;;;;;;4990335;28;20621;-42
2024/01/17 09:18:23;;;;;;;27.17;25.47;;;;;;;;;;4992542;28;20419;-42
2024/01/17 09:20:49;;;;;;;30.37;28.57;;;;;;;;;;4992084;28;20495;-42
2024/01/17 09:23:15;;;;;;;26.45;24.85;;;;;;;;;;4992640;28;20455;-42
2024/01/17 09:25:41;;;;;;;30.02;28.10;;;;;;;;;;4993668;28;20730;-42
2024/01/17 09:28:07;;;;;;;29.40;27.37;;;;;;;;;;4990621;28;20165;-42
2024/01/17 09:30:33;;;;;;;27.47;25.47;;;;;;;;;;4990465;28;20582;-42
2024/01/17 09:32:59;;;;;;;25.60;23.80;;;;;;;;;;4992296;28;20404;-42
2024/01/17 09:35:25;;;;;;;35.37;32.97;;;;;;;;;;4991262;28;20181;-42
2024/01/17 09:37:52;;;;;;;27.95;25.85;;;;;;;;;;4990578;28;20411;-42
2024/01/17 09:40:21;;;;;;;31.05;28.60;;;;;;;;;;4990953;28;20191;-42
2024/01/17 09:42:47;;;;;;;26.90;25.20;;;;;;;;;;4992464;28;20652;-42
2024/01/17 09:45:14;;;;;;;29.30;27.30;;;;;;;;;;4991770;28;20203;-42
2024/01/17 09:47:42;;;;;;;63.33;57.47;;;;;;;;;;4992508;28;20407;-42
2024/01/17 09:50:08;;;;;;;66.47;59.92;;;;;;;;;;4992343;28;20169;-42
2024/01/17 09:52:34;;;;;;;65.53;59.38;;;;;;;;;;4992548;28;20216;-42
2024/01/17 09:55:00;;;;;;;62.40;56.90;;;;;;;;;;4992507;28;20169;-42
2024/01/17 09:57:28;;;;;;;53.30;48.47;;;;;;;;;;4992458;28;20183;-42
2024/01/17 09:59:58;;;;;;;55.65;50.63;;;;;;;;;;4992390;28;20201;-42
2024/01/17 10:02:25;;;;;;;55.65;51.20;;;;;;;;;;4992003;28;20220;-42
2024/01/17 10:04:51;;;;;;;56.42;51.75;;;;;;;;;;4991289;28;20246;-42
2024/01/17 10:07:17;;;;;;;34.13;31.40;;;;;;;;;;4992417;28;20176;-42
2024/01/17 10:09:45;;;;;;;59.50;54.28;;;;;;;;;;4992373;28;20199;-42
2024/01/17 10:12:11;;;;;;;64.95;58.55;;;;;;;;;;4991937;28;20216;-42
2024/01/17 10:14:37;;;;;;;64.10;57.50;;;;;;;;;;4994429;28;20169;-42
2024/01/17 10:17:05;;;;;;;63.73;57.17;;;;;;;;;;4996484;28;20204;-42
2024/01/17 10:19:31;;;;;;;24.17;22.58;;;;;;;;;;4996273;28;20407;-43
2024/01/17 10:22:02;;;;;;;21.80;20.30;;;;;;;;;;4995847;28;20193;-43
2024/01/17 10:24:28;;;;;;;20.90;19.40;;;;;;;;;;4996169;28;20491;-43
2024/01/17 10:26:55;;;;;;;22.97;21.40;;;;;;;;;;4996196;28;20624;-43
2024/01/17 10:29:21;;;;;;;25.42;23.65;;;;;;;;;;4996038;28;20507;-42
2024/01/17 10:31:47;;;;;;;20.37;18.87;;;;;;;;;;4995843;28;20201;-42
2024/01/17 10:34:13;;;;;;;23.43;21.83;;;;;;;;;;4994827;28;20491;-43
2024/01/17 10:36:39;;;;;;;20.38;18.98;;;;;;;;;;4996095;28;20408;-42
2024/01/17 10:39:05;;;;;;;24.73;22.88;;;;;;;;;;4995889;28;20172;-42
2024/01/17 10:41:32;;;;;;;25.30;23.55;;;;;;;;;;4995540;28;20189;-42
2024/01/17 10:44:00;;;;;;;24.52;22.83;;;;;;;;;;4995507;28;20232;-42
2024/01/17 10:46:26;;;;;;;20.77;19.33;;;;;;;;;;4995714;28;20223;-42
2024/01/17 10:48:52;;;;;;;22.67;21.15;;;;;;;;;;4995777;28;20192;-42
2024/01/17 10:51:22;;;;;;;22.50;20.98;;;;;;;;;;4995145;28;20555;-42
2024/01/17 10:53:52;;;;;;;22.50;21.00;;;;;;;;;;4995577;28;20252;-42
2024/01/17 10:56:22;;;;;;;20.55;19.13;;;;;;;;;;4995616;28;20235;-42
2024/01/17 10:58:49;;;;;;;24.75;23.15;;;;;;;;;;4995461;28;20173;-42
2024/01/17 11:01:17;;;;;;;37.30;34.20;;;;;;;;;;4994521;28;20259;-42
2024/01/17 11:03:45;;;;;;;26.10;24.40;;;;;;;;;;4994891;28;20184;-42
2024/01/17 11:06:11;;;;;;;22.98;21.48;;;;;;;;;;4995278;28;20279;-42
2024/01/17 11:08:38;;;;;;;23.98;22.48;;;;;;;;;;4995372;28;20172;-42
2024/01/17 11:11:06;;;;;;;53.03;47.95;;;;;;;;;;4993414;28;20200;-42
2024/01/17 11:13:32;;;;;;;61.60;55.55;;;;;;;;;;4995049;28;20177;-42
2024/01/17 11:15:59;;;;;;;22.65;21.23;;;;;;;;;;4995265;28;20177;-42
2024/01/17 11:18:26;;;;;;;22.00;20.60;;;;;;;;;;4995193;28;20165;-42
2024/01/17 11:20:53;;;;;;;26.23;24.52;;;;;;;;;;4994492;28;20220;-42
2024/01/17 11:23:39;;;;;;;23.65;21.98;;;;;;;;;;4994663;28;20271;-42
2024/01/17 11:26:16;;;;;;;66.30;60.17;;;;;;;;;;4990320;28;20292;-43
2024/01/17 11:28:58;;;;;;;60.47;54.72;;;;;;;;;;4995121;28;20652;-42
2024/01/17 11:32:02;;;;;;;65.28;59.28;;;;;;;;;;4994784;28;20261;-43
2024/01/17 11:34:28;;;;;;;64.75;58.90;;;;;;;;;;4973067;28;20221;-43
2024/01/17 11:36:54;;;;;;;59.57;53.77;;;;;;;;;;4972992;28;20600;-42
2024/01/17 11:39:20;;;;;;;60.90;55.00;;;;;;;;;;4983238;28;20404;-42
2024/01/17 11:41:47;;;;;;;58.38;52.58;;;;;;;;;;4994444;28;20935;-42
2024/01/17 11:44:14;;;;;;;56.90;50.90;;;;;;;;;;4994544;28;20185;-42
2024/01/17 11:46:40;;;;;;;62.47;56.17;;;;;;;;;;4994625;28;20303;-42
2024/01/17 11:49:09;;;;;;;59.58;53.47;;;;;;;;;;4994521;28;20200;-42
2024/01/17 11:51:35;;;;;;;63.97;57.60;;;;;;;;;;4994071;28;20672;-43
2024/01/17 11:54:03;;;;;;;59.40;53.70;;;;;;;;;;4993132;28;20200;-43
2024/01/17 11:56:29;;;;;;;61.35;55.53;;;;;;;;;;4995058;28;20169;-42
2024/01/17 11:59:13;;;;;;;59.67;53.40;;;;;;;;;;4994349;28;20175;-42
2024/01/17 12:01:40;;;;;;;61.72;55.47;;;;;;;;;;4994425;28;20197;-42
2024/01/17 12:04:14;;;;;;;57.17;51.13;;;;;;;;;;4994404;28;20355;-42
2024/01/17 12:06:41;;;;;;;54.38;48.55;;;;;;;;;;4993874;28;20200;-42
2024/01/17 12:09:12;;;;;;;24.83;23.30;;;;;;;;;;4994323;28;20172;-42
2024/01/17 12:11:38;;;;;;;24.25;22.75;;;;;;;;;;4994063;28;20664;-42
2024/01/17 12:14:04;;;;;;;23.20;21.80;;;;;;;;;;4994122;28;20171;-42
2024/01/17 12:16:30;;;;;;;25.07;23.37;;;;;;;;;;4982772;28;20428;-42
2024/01/17 12:18:59;;;;;;;23.83;22.40;;;;;;;;;;4988915;28;20423;-42
2024/01/17 12:21:25;;;;;;;23.42;22.00;;;;;;;;;;4993686;28;20432;-42
2024/01/17 12:23:51;;;;;;;56.73;49.40;;;;;;;;;;4993944;28;20748;-42
2024/01/17 12:26:18;;;;;;;53.83;41.87;;;;;;;;;;4993870;28;20451;-43
2024/01/17 12:28:45;;;;;;;62.53;43.45;;;;;;;;;;4993967;28;20400;-42
2024/01/17 12:31:11;;;;;;;59.08;44.95;;;;;;;;;;4993589;28;20600;-43
2024/01/17 12:33:38;;;;;;;44.30;38.67;;;;;;;;;;4993829;28;20165;-42
2024/01/17 12:36:05;;;;;;;28.48;26.77;;;;;;;;;;4993747;28;20177;-42
2024/01/17 12:38:33;;;;;;;24.38;22.88;;;;;;;;;;4992743;28;20258;-42
2024/01/17 12:41:00;;;;;;;28.58;26.88;;;;;;;;;;4993286;28;20688;-43
2024/01/17 12:43:28;;;;;;;26.08;24.48;;;;;;;;;;4993373;28;20189;-43
2024/01/17 12:45:54;;;;;;;22.45;20.98;;;;;;;;;;4993321;28;20280;-42
2024/01/17 12:48:20;;;;;;;25.77;24.17;;;;;;;;;;4993390;28;20208;-43
2024/01/17 12:50:48;;;;;;;23.35;21.90;;;;;;;;;;4993176;28;20618;-43
2024/01/17 12:53:18;;;;;;;26.52;24.90;;;;;;;;;;4993283;28;20169;-42
2024/01/17 12:55:45;;;;;;;30.10;28.25;;;;;;;;;;4993335;28;20185;-42
2024/01/17 12:58:11;;;;;;;29.33;27.55;;;;;;;;;;4993383;28;20664;-44
2024/01/17 13:00:37;;;;;;;27.63;25.85;;;;;;;;;;4992914;28;20188;-42
2024/01/17 13:03:03;;;;;;;27.90;26.20;;;;;;;;;;4993223;28;20223;-42
2024/01/17 13:05:29;;;;;;;25.05;23.33;;;;;;;;;;4992562;28;20197;-42
2024/01/17 13:08:06;;;;;;;26.20;24.47;;;;;;;;;;4992580;28;20537;-43
2024/01/17 13:10:33;;;;;;;23.05;21.50;;;;;;;;;;4988679;28;20422;-42
2024/01/17 13:12:59;;;;;;;27.38;25.48;;;;;;;;;;4992734;28;20204;-42
2024/01/17 13:15:25;;;;;;;29.63;27.50;;;;;;;;;;4991355;28;20220;-43
2024/01/17 13:17:51;;;;;;;25.00;23.35;;;;;;;;;;4992850;28;20413;-43
2024/01/17 13:20:21;;;;;;;25.67;23.53;;;;;;;;;;4993145;28;20187;-43
2024/01/17 13:22:49;;;;;;;23.90;22.40;;;;;;;;;;4994198;28;20411;-43
2024/01/17 13:25:16;;;;;;;25.52;23.73;;;;;;;;;;4994048;28;20636;-43
2024/01/17 13:27:43;;;;;;;23.95;22.35;;;;;;;;;;4994684;28;20168;-42
2024/01/17 13:30:09;;;;;;;23.50;21.90;;;;;;;;;;4992021;28;20177;-43
2024/01/17 13:32:35;;;;;;;22.75;21.38;;;;;;;;;;4992077;28;20484;-42
2024/01/17 13:35:03;;;;;;;26.33;24.73;;;;;;;;;;4992763;28;20535;-43
2024/01/17 13:37:29;;;;;;;29.10;27.35;;;;;;;;;;4992199;28;20487;-42
2024/01/17 13:39:55;;;;;;;29.83;28.13;;;;;;;;;;4991749;28;20181;-42
2024/01/17 13:42:21;;;;;;;23.90;22.47;;;;;;;;;;4992211;28;20204;-43
2024/01/17 13:44:47;;;;;;;20.87;19.60;;;;;;;;;;4992487;28;20557;-43
2024/01/17 13:47:13;;;;;;;26.08;24.30;;;;;;;;;;4992480;28;20949;-43
2024/01/17 13:49:43;;;;;;;18.77;17.50;;;;;;;;;;4992227;28;20176;-42
2024/01/17 13:52:09;;;;;;;16.02;14.82;;;;;;;;;;4992196;28;20180;-42
2024/01/17 13:54:35;;;;;;;16.58;15.45;;;;;;;;;;4990961;28;20227;-42
2024/01/17 13:57:01;;;;;;;23.10;21.67;;;;;;;;;;4992653;28;20529;-42
2024/01/17 13:59:28;;;;;;;19.77;18.45;;;;;;;;;;4992358;28;20428;-42
2024/01/17 14:01:56;;;;;;;19.10;17.77;;;;;;;;;;4992257;28;20188;-42
2024/01/17 14:04:22;;;;;;;17.33;16.00;;;;;;;;;;4992735;28;20169;-42
2024/01/17 14:06:48;;;;;;;20.67;19.23;;;;;;;;;;4992280;28;20684;-42
2024/01/17 14:09:14;;;;;;;18.63;17.17;;;;;;;;;;4992112;28;20486;-42
2024/01/17 14:11:40;;;;;;;18.08;16.73;;;;;;;;;;4991965;28;20181;-42
2024/01/17 14:14:10;;;;;;;17.75;16.45;;;;;;;;;;4992248;28;20561;-42